createdAt,value
2019-01-10T00:01:46.385Z,3.46
2019-01-10T00:04:12.250Z,3.39
2019-01-10T00:06:39.034Z,3.40
2019-01-10T00:09:05.315Z,3.42
2019-01-10T00:11:31.196Z,3.39
2019-01-10T00:13:57.068Z,3.10
2019-01-10T00:16:22.938Z,3.08
2019-01-10T00:18:48.868Z,3.34
2019-01-10T00:21:14.734Z,3.56
2019-01-10T00:23:40.616Z,3.49
2019-01-10T00:26:06.477Z,3.29
2019-01-10T00:28:32.356Z,3.26
2019-01-10T00:30:58.225Z,3.20
2019-01-10T00:33:24.141Z,3.22
2019-01-10T00:35:50.054Z,3.21
2019-01-10T00:38:15.917Z,3.16
2019-01-10T00:40:41.907Z,3.57
2019-01-10T00:43:07.807Z,3.66
2019-01-10T00:45:34.014Z,3.62
2019-01-10T00:48:01.170Z,3.42
2019-01-10T00:50:27.026Z,3.42
2019-01-10T00:52:53.043Z,3.35
2019-01-10T00:55:18.928Z,3.27
2019-01-10T00:57:44.818Z,3.11
2019-01-10T01:00:16.645Z,3.04
2019-01-10T01:02:42.629Z,2.97
2019-01-10T01:05:10.656Z,2.97
2019-01-10T01:07:36.560Z,3.23
2019-01-10T01:10:08.830Z,3.23
2019-01-10T01:12:34.727Z,3.19
2019-01-10T01:15:00.602Z,3.07
2019-01-10T01:17:26.476Z,2.96
2019-01-10T01:19:52.368Z,2.96
2019-01-10T01:22:18.344Z,3.01
2019-01-10T01:24:44.200Z,3.10
2019-01-10T01:27:10.052Z,3.19
2019-01-10T01:29:35.934Z,3.02
2019-01-10T01:32:01.803Z,3.02
2019-01-10T01:34:27.670Z,3.19
2019-01-10T01:36:53.554Z,3.19
2019-01-10T01:39:19.569Z,2.99
2019-01-10T01:41:45.452Z,3.09
2019-01-10T01:44:11.317Z,3.09
2019-01-10T01:46:37.405Z,3.21
2019-01-10T01:49:03.905Z,3.31
2019-01-10T01:51:29.911Z,3.13
2019-01-10T01:53:55.760Z,2.95
2019-01-10T01:56:21.640Z,2.82
2019-01-10T01:58:47.500Z,2.94
2019-01-10T02:01:13.687Z,2.90
2019-01-10T02:03:39.603Z,2.78
2019-01-10T02:06:05.474Z,2.78
2019-01-10T02:08:31.355Z,2.83
2019-01-10T02:10:57.352Z,2.73
2019-01-10T02:13:23.247Z,2.73
2019-01-10T02:15:49.109Z,2.73
2019-01-10T02:18:14.986Z,2.57
2019-01-10T02:20:40.852Z,2.81
2019-01-10T02:23:06.710Z,2.51
2019-01-10T02:25:32.677Z,2.63
2019-01-10T02:27:58.596Z,2.57
2019-01-10T02:30:24.577Z,2.62
2019-01-10T02:32:50.491Z,2.55
2019-01-10T02:35:16.439Z,2.48
2019-01-10T02:37:42.380Z,2.43
2019-01-10T02:40:08.359Z,2.69
2019-01-10T02:42:34.395Z,2.76
2019-01-10T02:45:00.265Z,2.92
2019-01-10T02:47:26.283Z,2.96
2019-01-10T02:49:52.563Z,2.91
2019-01-10T02:52:18.417Z,2.83
2019-01-10T02:54:44.281Z,2.96
2019-01-10T02:57:10.201Z,2.90
2019-01-10T02:59:36.071Z,2.79
2019-01-10T03:02:02.255Z,2.87
2019-01-10T03:04:28.181Z,2.63
2019-01-10T03:06:54.091Z,2.63
2019-01-10T03:09:20.121Z,2.71
2019-01-10T03:11:45.991Z,2.61
2019-01-10T03:14:11.967Z,2.53
2019-01-10T03:16:37.861Z,2.69
2019-01-10T03:19:03.776Z,2.64
2019-01-10T03:21:29.632Z,2.76
2019-01-10T03:23:55.556Z,2.51
2019-01-10T03:26:21.433Z,2.48
2019-01-10T03:28:47.293Z,2.50
2019-01-10T03:31:13.239Z,2.72
2019-01-10T03:33:39.162Z,2.71
2019-01-10T03:36:05.010Z,2.61
2019-01-10T03:38:30.902Z,2.36
2019-01-10T03:40:56.825Z,2.41
2019-01-10T03:43:22.735Z,2.45
2019-01-10T03:45:48.589Z,2.37
2019-01-10T03:48:15.054Z,2.30
2019-01-10T03:50:41.802Z,2.35
2019-01-10T03:53:07.732Z,2.41
2019-01-10T03:55:33.594Z,2.50
2019-01-10T03:57:59.584Z,2.45
2019-01-10T04:00:25.508Z,2.41
2019-01-10T04:02:51.403Z,2.23
2019-01-10T04:05:17.311Z,1.99
2019-01-10T04:07:43.202Z,2.25
2019-01-10T04:10:10.868Z,2.40
2019-01-10T04:12:36.859Z,2.23
2019-01-10T04:15:04.472Z,2.09
2019-01-10T04:17:30.435Z,2.09
2019-01-10T04:19:56.326Z,2.11
2019-01-10T04:22:22.279Z,2.19
2019-01-10T04:24:48.197Z,2.21
2019-01-10T04:27:14.071Z,2.01
2019-01-10T04:29:39.934Z,2.14
2019-01-10T04:32:05.862Z,2.15
2019-01-10T04:34:31.739Z,2.10
2019-01-10T04:36:57.776Z,1.84
2019-01-10T04:39:23.669Z,1.70
2019-01-10T04:41:49.567Z,2.00
2019-01-10T04:44:15.445Z,2.12
2019-01-10T04:46:41.350Z,2.04
2019-01-10T04:49:07.386Z,2.01
2019-01-10T04:51:34.015Z,2.01
2019-01-10T04:53:59.901Z,2.01
2019-01-10T04:56:25.890Z,1.86
2019-01-10T04:58:51.782Z,2.06
2019-01-10T05:01:17.658Z,1.91
2019-01-10T05:03:43.658Z,1.94
2019-01-10T05:06:09.536Z,1.93
2019-01-10T05:08:35.394Z,1.96
2019-01-10T05:11:01.384Z,2.06
2019-01-10T05:13:27.255Z,1.94
2019-01-10T05:15:53.161Z,1.88
2019-01-10T05:18:19.018Z,1.84
2019-01-10T05:20:46.000Z,1.90
2019-01-10T05:23:12.150Z,1.72
2019-01-10T05:25:38.178Z,1.81
2019-01-10T05:28:04.078Z,1.84
2019-01-10T05:30:29.975Z,1.71
2019-01-10T05:32:55.870Z,1.79
2019-01-10T05:35:21.733Z,1.63
2019-01-10T05:37:47.730Z,2.00
2019-01-10T05:40:13.623Z,2.01
2019-01-10T05:42:39.525Z,1.88
2019-01-10T05:45:08.898Z,1.81
2019-01-10T05:47:34.776Z,1.77
2019-01-10T05:50:01.436Z,1.87
2019-01-10T05:52:28.526Z,1.76
2019-01-10T05:54:54.422Z,1.67
2019-01-10T05:57:20.397Z,1.74
2019-01-10T05:59:46.276Z,1.70
2019-01-10T06:02:12.177Z,1.65
2019-01-10T06:04:38.058Z,1.57
2019-01-10T06:07:03.973Z,1.45
2019-01-10T06:09:31.752Z,1.76
2019-01-10T06:11:57.662Z,1.72
2019-01-10T06:14:23.557Z,1.50
2019-01-10T06:16:49.444Z,1.48
2019-01-10T06:19:15.313Z,1.39
2019-01-10T06:21:41.182Z,1.28
2019-01-10T06:24:07.054Z,1.40
2019-01-10T06:26:32.946Z,1.33
2019-01-10T06:28:58.834Z,1.27
2019-01-10T06:31:24.843Z,1.51
2019-01-10T06:33:50.736Z,1.20
2019-01-10T06:36:16.614Z,1.35
2019-01-10T06:38:42.589Z,1.32
2019-01-10T06:41:08.490Z,1.25
2019-01-10T06:43:34.535Z,1.35
2019-01-10T06:46:00.396Z,1.32
2019-01-10T06:48:26.288Z,1.21
2019-01-10T06:50:52.840Z,1.24
2019-01-10T06:53:19.356Z,1.23
2019-01-10T06:55:45.235Z,1.20
2019-01-10T06:58:11.229Z,1.30
2019-01-10T07:00:37.108Z,1.28
2019-01-10T07:03:03.008Z,1.25
2019-01-10T07:05:28.978Z,1.11
2019-01-10T07:07:56.734Z,1.25
2019-01-10T07:10:24.719Z,1.03
2019-01-10T07:12:50.688Z,1.06
2019-01-10T07:15:16.551Z,1.03
2019-01-10T07:17:42.499Z,1.21
2019-01-10T07:20:09.592Z,1.16
2019-01-10T07:22:41.997Z,1.35
2019-01-10T07:25:07.893Z,1.17
2019-01-10T07:27:33.735Z,1.29
2019-01-10T07:29:59.913Z,1.38
2019-01-10T07:32:25.866Z,1.21
2019-01-10T07:34:55.550Z,1.44
2019-01-10T07:37:21.402Z,1.30
2019-01-10T07:39:47.295Z,1.49
2019-01-10T07:42:13.157Z,1.86
2019-01-10T07:44:39.040Z,1.89
2019-01-10T07:47:04.927Z,1.88
2019-01-10T07:49:30.800Z,1.98
2019-01-10T07:51:57.150Z,1.69
2019-01-10T07:54:23.704Z,1.69
2019-01-10T07:56:49.586Z,1.72
2019-01-10T07:59:15.431Z,1.88
2019-01-10T08:01:41.334Z,1.67
2019-01-10T08:04:07.244Z,1.73
2019-01-10T08:06:33.110Z,1.62
2019-01-10T08:08:59.081Z,1.65
2019-01-10T08:11:25.015Z,1.52
2019-01-10T08:13:50.911Z,1.72
2019-01-10T08:16:16.757Z,1.62
2019-01-10T08:18:42.627Z,1.43
2019-01-10T08:21:08.519Z,1.42
2019-01-10T08:23:34.387Z,1.52
2019-01-10T08:26:00.270Z,1.50
2019-01-10T08:28:26.123Z,1.85
2019-01-10T08:30:52.107Z,1.75
2019-01-10T08:33:18.035Z,1.60
2019-01-10T08:35:43.894Z,1.51
2019-01-10T08:38:09.770Z,1.62
2019-01-10T08:40:35.630Z,1.83
2019-01-10T08:43:01.528Z,1.81
2019-01-10T08:45:27.519Z,1.99
2019-01-10T08:47:53.505Z,2.10
2019-01-10T08:50:21.392Z,2.12
2019-01-10T08:52:47.404Z,2.06
2019-01-10T08:55:13.528Z,2.21
2019-01-10T08:57:39.407Z,2.13
2019-01-10T09:00:11.945Z,2.16
2019-01-10T09:02:37.870Z,2.15
2019-01-10T09:05:04.037Z,2.21
2019-01-10T09:07:29.925Z,2.13
2019-01-10T09:09:55.835Z,2.22
2019-01-10T09:12:21.797Z,2.42
2019-01-10T09:14:47.638Z,2.44
2019-01-10T09:17:13.547Z,2.41
2019-01-10T09:19:39.416Z,2.57
2019-01-10T09:22:05.266Z,2.73
2019-01-10T09:24:31.250Z,2.85
2019-01-10T09:26:57.148Z,2.95
2019-01-10T09:29:23.013Z,3.05
2019-01-10T09:31:48.888Z,3.19
2019-01-10T09:34:14.737Z,3.47
2019-01-10T09:36:40.639Z,3.61
2019-01-10T09:39:06.628Z,3.77
2019-01-10T09:41:32.617Z,3.98
2019-01-10T09:43:58.628Z,4.05
2019-01-10T09:46:24.529Z,4.22
2019-01-10T09:48:50.414Z,4.35
2019-01-10T09:51:16.284Z,4.47
2019-01-10T09:53:42.668Z,4.58
2019-01-10T09:56:08.891Z,4.65
2019-01-10T09:58:34.891Z,4.75
2019-01-10T10:01:01.748Z,4.78
2019-01-10T10:03:27.644Z,4.98
2019-01-10T10:05:53.502Z,5.04
2019-01-10T10:08:19.378Z,5.13
2019-01-10T10:10:45.257Z,5.11
2019-01-10T10:13:11.126Z,5.31
2019-01-10T10:15:36.977Z,5.44
2019-01-10T10:18:02.844Z,5.52
2019-01-10T10:20:28.804Z,5.40
2019-01-10T10:22:54.680Z,5.59
2019-01-10T10:25:20.586Z,5.82
2019-01-10T10:27:46.448Z,5.87
2019-01-10T10:30:17.472Z,5.93
2019-01-10T10:32:43.412Z,6.00
2019-01-10T10:35:09.238Z,6.12
2019-01-10T10:37:35.165Z,6.27
2019-01-10T10:40:02.251Z,6.38
2019-01-10T10:42:28.138Z,6.35
2019-01-10T10:44:54.097Z,6.46
2019-01-10T10:47:19.972Z,6.55
2019-01-10T10:49:45.824Z,6.57
2019-01-10T10:52:12.603Z,6.66
2019-01-10T10:54:38.999Z,6.71
2019-01-10T10:57:05.467Z,6.65
2019-01-10T10:59:31.362Z,6.75
2019-01-10T11:01:57.220Z,6.87
2019-01-10T11:04:23.103Z,6.90
2019-01-10T11:06:48.980Z,6.87
2019-01-10T11:09:14.933Z,7.00
2019-01-10T11:11:40.866Z,6.95
2019-01-10T11:14:06.828Z,7.14
2019-01-10T11:16:32.704Z,7.14
2019-01-10T11:18:58.567Z,7.25
2019-01-10T11:21:24.486Z,7.34
2019-01-10T11:23:50.344Z,7.25
2019-01-10T11:26:16.259Z,7.22
2019-01-10T11:28:42.138Z,7.34
2019-01-10T11:31:07.999Z,7.25
2019-01-10T11:33:34.034Z,7.35
2019-01-10T11:35:59.931Z,7.56
2019-01-10T11:38:25.783Z,7.59
2019-01-10T11:40:51.651Z,7.62
2019-01-10T11:43:17.516Z,7.58
2019-01-10T11:45:43.383Z,7.68
2019-01-10T11:48:09.245Z,7.72
2019-01-10T11:50:35.149Z,7.86
2019-01-10T11:53:01.002Z,7.79
2019-01-10T11:55:27.023Z,7.63
2019-01-10T11:57:53.467Z,7.81
2019-01-10T12:00:27.048Z,7.79
2019-01-10T12:02:52.911Z,7.84
2019-01-10T12:05:18.790Z,7.85
2019-01-10T12:07:44.812Z,7.81
2019-01-10T12:10:10.671Z,7.74
2019-01-10T12:12:36.569Z,8.00
2019-01-10T12:15:04.150Z,7.87
2019-01-10T12:17:31.205Z,7.97
2019-01-10T12:19:57.182Z,7.98
2019-01-10T12:22:23.045Z,7.99
2019-01-10T12:24:48.940Z,8.09
2019-01-10T12:27:14.814Z,8.14
2019-01-10T12:29:40.693Z,8.15
2019-01-10T12:32:06.559Z,8.16
2019-01-10T12:34:32.458Z,8.33
2019-01-10T12:37:00.555Z,8.31
2019-01-10T12:39:26.165Z,8.36
2019-01-10T12:41:52.035Z,8.26
2019-01-10T12:44:17.919Z,8.50
2019-01-10T12:46:43.786Z,8.59
2019-01-10T12:49:11.539Z,8.68
2019-01-10T12:51:37.559Z,8.52
2019-01-10T12:54:03.435Z,8.68
2019-01-10T12:56:29.424Z,9.13
2019-01-10T12:58:55.803Z,9.46
2019-01-10T13:01:21.656Z,11.34
2019-01-10T13:03:47.569Z,14.21
2019-01-10T13:06:13.434Z,14.93
2019-01-10T13:08:39.308Z,14.56
2019-01-10T13:11:05.306Z,14.65
2019-01-10T13:13:31.189Z,15.52
2019-01-10T13:15:57.072Z,15.13
2019-01-10T13:18:22.962Z,15.13
2019-01-10T13:20:48.871Z,16.03
2019-01-10T13:23:14.736Z,11.53
2019-01-10T13:25:40.602Z,11.46
2019-01-10T13:28:06.471Z,9.97
2019-01-10T13:30:32.358Z,9.72
2019-01-10T13:32:58.207Z,9.81
2019-01-10T13:35:24.269Z,8.97
2019-01-10T13:37:50.195Z,8.65
2019-01-10T13:40:16.192Z,8.43
2019-01-10T13:42:42.081Z,8.32
2019-01-10T13:45:12.491Z,8.10
2019-01-10T13:47:38.341Z,7.98
2019-01-10T13:50:11.301Z,8.01
2019-01-10T13:52:35.786Z,8.12
2019-01-10T13:55:02.074Z,8.21
2019-01-10T13:57:28.221Z,8.13
2019-01-10T13:59:56.047Z,8.10
2019-01-10T14:02:21.917Z,8.03
2019-01-10T14:04:47.817Z,7.98
2019-01-10T14:07:13.689Z,8.18
2019-01-10T14:09:39.570Z,8.05
2019-01-10T14:12:05.441Z,8.05
2019-01-10T14:14:31.298Z,7.97
2019-01-10T14:17:01.609Z,7.99
2019-01-10T14:19:24.966Z,8.29
2019-01-10T14:21:50.802Z,8.10
2019-01-10T14:24:16.662Z,7.72
2019-01-10T14:26:42.547Z,7.70
2019-01-10T14:29:08.464Z,7.74
2019-01-10T14:31:34.338Z,7.62
2019-01-10T14:34:00.189Z,7.72
2019-01-10T14:36:26.190Z,7.63
2019-01-10T14:38:52.057Z,7.57
2019-01-10T14:41:18.047Z,7.57
2019-01-10T14:43:43.923Z,7.54
2019-01-10T14:46:09.816Z,7.58
2019-01-10T14:48:35.709Z,7.52
2019-01-10T14:51:01.591Z,7.48
2019-01-10T14:53:27.473Z,7.39
2019-01-10T14:55:53.364Z,7.36
2019-01-10T14:58:19.674Z,7.27
2019-01-10T15:00:46.248Z,7.23
2019-01-10T15:03:12.153Z,7.18
2019-01-10T15:05:38.029Z,7.13
2019-01-10T15:08:03.919Z,7.00
2019-01-10T15:10:29.793Z,6.93
2019-01-10T15:12:55.649Z,6.84
2019-01-10T15:15:21.527Z,6.62
2019-01-10T15:17:47.393Z,6.42
2019-01-10T15:20:15.873Z,6.27
2019-01-10T15:22:41.746Z,6.13
2019-01-10T15:25:07.626Z,6.26
2019-01-10T15:27:33.488Z,6.17
2019-01-10T15:29:59.385Z,5.97
2019-01-10T15:32:25.239Z,5.81
2019-01-10T15:34:51.130Z,5.68
2019-01-10T15:37:17.006Z,5.37
2019-01-10T15:39:42.895Z,5.06
2019-01-10T15:42:08.781Z,5.19
2019-01-10T15:44:34.661Z,5.27
2019-01-10T15:47:00.498Z,5.32
2019-01-10T15:49:26.392Z,5.30
2019-01-10T15:51:52.278Z,4.99
2019-01-10T15:54:18.148Z,4.82
2019-01-10T15:56:44.008Z,4.65
2019-01-10T15:59:10.009Z,4.72
2019-01-10T16:01:39.432Z,4.61
2019-01-10T16:04:07.476Z,4.62
2019-01-10T16:06:33.306Z,4.38
2019-01-10T16:08:59.225Z,4.35
2019-01-10T16:11:25.071Z,4.17
2019-01-10T16:13:50.933Z,4.31
2019-01-10T16:16:16.805Z,4.23
2019-01-10T16:18:42.703Z,4.19
2019-01-10T16:21:08.744Z,4.13
2019-01-10T16:23:34.646Z,4.28
2019-01-10T16:26:00.495Z,4.28
2019-01-10T16:28:26.377Z,4.08
2019-01-10T16:30:52.265Z,4.07
2019-01-10T16:33:18.115Z,4.03
2019-01-10T16:35:44.047Z,4.08
2019-01-10T16:38:09.920Z,4.08
2019-01-10T16:40:35.820Z,3.95
2019-01-10T16:43:01.754Z,3.90
2019-01-10T16:45:27.580Z,3.78
2019-01-10T16:47:53.449Z,3.73
2019-01-10T16:50:19.311Z,3.73
2019-01-10T16:52:45.207Z,3.56
2019-01-10T16:55:11.869Z,3.53
2019-01-10T16:57:37.746Z,3.45
2019-01-10T17:00:14.241Z,3.39
2019-01-10T17:02:40.791Z,3.47
2019-01-10T17:05:06.676Z,3.19
2019-01-10T17:07:32.552Z,3.19
2019-01-10T17:09:58.414Z,3.23
2019-01-10T17:12:24.281Z,3.27
2019-01-10T17:14:50.271Z,3.20
2019-01-10T17:17:16.170Z,3.32
2019-01-10T17:19:42.057Z,3.30
2019-01-10T17:22:08.132Z,3.24
2019-01-10T17:24:34.056Z,3.01
2019-01-10T17:27:00.027Z,3.07
2019-01-10T17:29:26.169Z,2.97
2019-01-10T17:31:52.355Z,2.88
2019-01-10T17:34:18.372Z,2.75
2019-01-10T17:36:44.310Z,2.60
2019-01-10T17:39:10.334Z,2.55
2019-01-10T17:41:36.347Z,2.51
2019-01-10T17:44:02.435Z,2.78
2019-01-10T17:46:28.382Z,2.97
2019-01-10T17:48:54.628Z,3.03
2019-01-10T17:51:20.753Z,3.05
2019-01-10T17:53:46.648Z,2.82
2019-01-10T17:56:12.873Z,2.91
2019-01-10T17:58:38.747Z,3.09
2019-01-10T18:01:04.905Z,3.08
2019-01-10T18:03:31.739Z,2.78
2019-01-10T18:05:57.664Z,2.85
2019-01-10T18:08:23.568Z,3.07
2019-01-10T18:10:49.445Z,3.00
2019-01-10T18:13:15.333Z,2.81
2019-01-10T18:15:41.458Z,2.63
2019-01-10T18:18:07.289Z,2.59
2019-01-10T18:20:36.153Z,2.56
2019-01-10T18:23:02.033Z,2.62
2019-01-10T18:25:27.911Z,2.44
2019-01-10T18:27:53.832Z,2.54
2019-01-10T18:30:21.512Z,2.44
2019-01-10T18:32:47.402Z,2.36
2019-01-10T18:35:13.598Z,2.32
2019-01-10T18:37:39.469Z,2.30
2019-01-10T18:40:08.064Z,2.28
2019-01-10T18:42:33.910Z,2.48
2019-01-10T18:44:59.792Z,2.27
2019-01-10T18:47:25.670Z,2.23
2019-01-10T18:49:51.625Z,2.17
2019-01-10T18:52:17.480Z,2.18
2019-01-10T18:54:43.384Z,2.23
2019-01-10T18:57:09.272Z,2.17
2019-01-10T18:59:35.177Z,2.37
2019-01-10T19:02:01.182Z,2.25
2019-01-10T19:04:27.392Z,2.49
2019-01-10T19:06:53.261Z,2.36
2019-01-10T19:09:19.124Z,2.12
2019-01-10T19:11:45.050Z,2.21
2019-01-10T19:14:10.914Z,2.22
2019-01-10T19:16:36.777Z,2.12
2019-01-10T19:19:02.668Z,2.00
2019-01-10T19:21:28.640Z,1.90
2019-01-10T19:23:54.495Z,1.85
2019-01-10T19:26:20.359Z,1.80
2019-01-10T19:28:46.273Z,1.74
2019-01-10T19:31:12.144Z,1.74
2019-01-10T19:33:38.003Z,1.50
2019-01-10T19:36:03.978Z,1.59
2019-01-10T19:38:29.861Z,1.74
2019-01-10T19:40:55.759Z,1.80
2019-01-10T19:43:21.741Z,1.64
2019-01-10T19:45:47.846Z,1.79
2019-01-10T19:48:13.723Z,1.68
2019-01-10T19:50:39.595Z,1.65
2019-01-10T19:53:05.489Z,1.62
2019-01-10T19:55:31.672Z,1.48
2019-01-10T19:57:57.537Z,1.50
2019-01-10T20:00:32.683Z,1.57
2019-01-10T20:02:58.688Z,1.31
2019-01-10T20:05:25.528Z,1.16
2019-01-10T20:07:51.405Z,1.18
2019-01-10T20:10:17.439Z,1.26
2019-01-10T20:12:43.341Z,1.59
2019-01-10T20:15:09.303Z,1.58
2019-01-10T20:17:35.160Z,1.63
2019-01-10T20:20:03.332Z,1.45
2019-01-10T20:22:29.313Z,1.48
2019-01-10T20:24:55.209Z,1.47
2019-01-10T20:27:21.289Z,1.15
2019-01-10T20:29:47.353Z,1.20
2019-01-10T20:32:13.353Z,1.06
2019-01-10T20:34:39.288Z,1.13
2019-01-10T20:37:05.268Z,1.36
2019-01-10T20:39:31.124Z,1.16
2019-01-10T20:42:01.842Z,1.00
2019-01-10T20:44:24.808Z,1.02
2019-01-10T20:46:51.179Z,1.22
2019-01-10T20:49:17.534Z,1.07
2019-01-10T20:51:43.656Z,1.32
2019-01-10T20:54:09.580Z,1.17
2019-01-10T20:56:35.452Z,1.22
2019-01-10T20:59:02.373Z,1.06
2019-01-10T21:01:28.294Z,0.95
2019-01-10T21:03:54.203Z,1.30
2019-01-10T21:06:20.472Z,1.21
2019-01-10T21:08:46.623Z,1.55
2019-01-10T21:11:12.467Z,1.52
2019-01-10T21:13:38.490Z,1.31
2019-01-10T21:16:04.469Z,1.37
2019-01-10T21:18:30.353Z,1.42
2019-01-10T21:20:56.320Z,1.54
2019-01-10T21:23:22.387Z,1.89
2019-01-10T21:25:48.262Z,1.70
2019-01-10T21:28:14.176Z,1.60
2019-01-10T21:30:40.042Z,1.46
2019-01-10T21:33:05.971Z,1.41
2019-01-10T21:35:31.862Z,1.29
2019-01-10T21:37:57.723Z,1.72
2019-01-10T21:40:23.697Z,1.65
2019-01-10T21:42:51.510Z,1.59
2019-01-10T21:45:17.865Z,1.67
2019-01-10T21:47:43.681Z,1.79
2019-01-10T21:50:12.753Z,1.71
2019-01-10T21:52:38.851Z,1.45
2019-01-10T21:55:07.526Z,1.50
2019-01-10T21:57:34.332Z,1.74
2019-01-10T22:00:00.248Z,1.79
2019-01-10T22:02:26.149Z,1.55
2019-01-10T22:04:52.217Z,1.60
2019-01-10T22:07:18.884Z,1.30
2019-01-10T22:09:44.872Z,1.31
2019-01-10T22:12:10.868Z,1.57
2019-01-10T22:14:36.712Z,1.57
2019-01-10T22:17:02.796Z,1.55
2019-01-10T22:19:28.671Z,1.67
2019-01-10T22:21:54.559Z,1.61
2019-01-10T22:24:20.445Z,1.67
2019-01-10T22:26:46.463Z,1.83
2019-01-10T22:29:12.269Z,2.02
2019-01-10T22:31:38.156Z,2.22
2019-01-10T22:34:04.107Z,2.18
2019-01-10T22:36:29.965Z,2.19
2019-01-10T22:38:55.940Z,1.88
2019-01-10T22:41:21.840Z,2.49
2019-01-10T22:43:47.710Z,2.60
2019-01-10T22:46:13.584Z,2.63
2019-01-10T22:48:39.557Z,2.82
2019-01-10T22:51:05.421Z,2.52
2019-01-10T22:53:31.318Z,2.40
2019-01-10T22:55:58.193Z,2.71
2019-01-10T22:58:24.059Z,2.51
2019-01-10T23:00:54.935Z,2.25
2019-01-10T23:03:20.830Z,2.04
2019-01-10T23:05:46.749Z,2.04
2019-01-10T23:08:13.389Z,1.96
2019-01-10T23:10:39.350Z,2.19
2019-01-10T23:13:05.327Z,2.42
2019-01-10T23:15:32.795Z,2.16
2019-01-10T23:17:58.799Z,1.97
2019-01-10T23:20:24.683Z,2.10
2019-01-10T23:22:50.668Z,1.79
2019-01-10T23:25:16.550Z,1.86
2019-01-10T23:27:44.034Z,1.97
2019-01-10T23:30:10.414Z,1.84
2019-01-10T23:32:36.323Z,1.66
2019-01-10T23:35:02.506Z,1.48
2019-01-10T23:37:28.476Z,1.52
2019-01-10T23:39:54.534Z,1.55
2019-01-10T23:42:20.547Z,1.50
2019-01-10T23:44:47.795Z,1.41
2019-01-10T23:47:13.797Z,1.29
2019-01-10T23:49:39.663Z,1.43
2019-01-10T23:52:05.562Z,1.56
2019-01-10T23:54:31.433Z,1.87
2019-01-10T23:56:57.284Z,1.66
2019-01-10T23:59:23.262Z,1.60
